createdAt,value
2018-12-08T00:00:59.177Z,99.90
2018-12-08T00:03:32.440Z,99.90
2018-12-08T00:06:06.729Z,99.90
2018-12-08T00:08:41.021Z,99.90
2018-12-08T00:11:13.506Z,99.90
2018-12-08T00:13:46.830Z,99.90
2018-12-08T00:16:19.352Z,99.90
2018-12-08T00:18:53.493Z,99.90
2018-12-08T00:21:32.334Z,99.90
2018-12-08T00:24:07.839Z,99.90
2018-12-08T00:26:47.002Z,99.90
2018-12-08T00:29:21.016Z,99.90
2018-12-08T00:31:54.134Z,99.90
2018-12-08T00:34:27.027Z,99.90
2018-12-08T00:37:01.061Z,99.90
2018-12-08T00:39:33.948Z,99.90
2018-12-08T00:42:06.291Z,99.90
2018-12-08T00:44:38.603Z,99.90
2018-12-08T00:47:10.675Z,99.90
2018-12-08T00:49:44.457Z,99.90
2018-12-08T00:52:16.924Z,99.90
2018-12-08T00:54:49.212Z,99.90
2018-12-08T00:57:21.566Z,99.90
2018-12-08T00:59:54.635Z,99.90
2018-12-08T01:02:27.002Z,99.90
2018-12-08T01:05:00.292Z,99.90
2018-12-08T01:07:33.491Z,99.90
2018-12-08T01:10:07.416Z,99.90
2018-12-08T01:12:39.884Z,99.90
2018-12-08T01:15:15.841Z,99.90
2018-12-08T01:17:48.467Z,99.90
2018-12-08T01:20:25.532Z,99.90
2018-12-08T01:26:24.970Z,99.90
2018-12-08T01:29:01.112Z,99.90
2018-12-08T01:31:34.738Z,99.90
2018-12-08T01:34:07.547Z,99.90
2018-12-08T01:40:02.715Z,99.90
2018-12-08T01:42:36.748Z,99.90
2018-12-08T01:45:11.468Z,99.90
2018-12-08T01:47:44.393Z,99.90
2018-12-08T01:50:21.892Z,99.90
2018-12-08T01:52:55.636Z,99.90
2018-12-08T01:55:31.149Z,99.90
2018-12-08T01:58:04.129Z,99.90
2018-12-08T02:00:40.768Z,99.90
2018-12-08T02:03:14.812Z,99.90
2018-12-08T02:05:49.611Z,99.90
2018-12-08T02:08:27.211Z,99.90
2018-12-08T02:11:05.637Z,99.90
2018-12-08T02:13:38.906Z,99.90
2018-12-08T02:16:14.168Z,99.90
2018-12-08T02:18:49.191Z,99.90
2018-12-08T02:21:26.552Z,99.90
2018-12-08T02:24:00.445Z,99.90
2018-12-08T02:30:11.490Z,99.90
2018-12-08T02:32:53.893Z,99.90
2018-12-08T02:35:26.936Z,99.90
2018-12-08T02:38:00.861Z,99.90
2018-12-08T02:40:35.359Z,99.90
2018-12-08T02:46:30.042Z,99.90
2018-12-08T02:49:05.241Z,99.90
2018-12-08T02:51:40.155Z,99.90
2018-12-08T02:54:12.918Z,99.90
2018-12-08T02:56:49.311Z,99.90
2018-12-08T02:59:22.964Z,99.90
2018-12-08T03:01:57.107Z,99.90
2018-12-08T03:04:33.223Z,99.90
2018-12-08T03:07:41.534Z,99.90
2018-12-08T03:10:15.466Z,99.90
2018-12-08T03:12:50.708Z,99.90
2018-12-08T03:15:26.894Z,99.90
2018-12-08T03:17:59.665Z,99.90
2018-12-08T03:20:33.201Z,99.90
2018-12-08T03:23:06.166Z,99.90
2018-12-08T03:25:40.269Z,99.90
2018-12-08T03:28:12.994Z,99.90
2018-12-08T03:30:46.275Z,99.90
2018-12-08T03:33:19.011Z,99.90
2018-12-08T03:35:52.245Z,99.90
2018-12-08T03:38:24.998Z,99.90
2018-12-08T03:40:58.504Z,99.90
2018-12-08T03:43:31.921Z,99.90
2018-12-08T03:46:05.211Z,99.90
2018-12-08T03:48:38.452Z,99.90
2018-12-08T03:51:14.208Z,99.90
2018-12-08T03:53:51.234Z,99.90
2018-12-08T03:56:27.516Z,99.90
2018-12-08T03:59:02.442Z,99.90
2018-12-08T04:01:38.471Z,99.90
2018-12-08T04:04:13.815Z,99.90
2018-12-08T04:06:51.934Z,99.90
2018-12-08T04:09:25.477Z,99.90
2018-12-08T04:12:01.491Z,99.90
2018-12-08T04:14:38.932Z,99.90
2018-12-08T04:17:13.147Z,99.90
2018-12-08T04:19:45.709Z,99.90
2018-12-08T04:29:08.225Z,99.90
2018-12-08T04:31:40.587Z,99.90
2018-12-08T04:34:12.991Z,99.90
2018-12-08T04:36:45.345Z,99.90
2018-12-08T04:39:20.105Z,99.90
2018-12-08T04:41:53.602Z,99.90
2018-12-08T04:44:29.167Z,99.90
2018-12-08T04:47:01.537Z,99.90
2018-12-08T04:52:56.291Z,99.90
2018-12-08T04:55:30.758Z,99.90
2018-12-08T04:58:03.607Z,99.90
2018-12-08T05:00:37.745Z,99.90
2018-12-08T05:03:11.176Z,99.90
2018-12-08T05:05:44.136Z,99.90
2018-12-08T05:08:17.310Z,99.90
2018-12-08T05:14:12.630Z,99.90
2018-12-08T05:16:44.769Z,99.90
2018-12-08T05:19:16.896Z,99.90
2018-12-08T05:21:49.395Z,99.90
2018-12-08T05:24:21.742Z,99.90
2018-12-08T05:26:54.910Z,99.90
2018-12-08T05:29:27.244Z,99.90
2018-12-08T05:31:59.439Z,99.90
2018-12-08T05:34:31.745Z,99.90
2018-12-08T05:37:04.123Z,99.90
2018-12-08T05:39:36.618Z,99.90
2018-12-08T05:42:09.829Z,99.90
2018-12-08T05:44:42.221Z,99.90
2018-12-08T05:47:14.750Z,99.90
2018-12-08T05:49:47.008Z,99.90
2018-12-08T05:52:19.266Z,99.90
2018-12-08T05:54:51.767Z,99.90
2018-12-08T05:57:26.477Z,99.90
2018-12-08T06:00:01.366Z,99.90
2018-12-08T06:02:33.768Z,99.90
2018-12-08T06:05:05.891Z,99.90
2018-12-08T06:07:38.179Z,99.90
2018-12-08T06:10:10.603Z,99.90
2018-12-08T06:12:42.939Z,99.90
2018-12-08T06:15:15.042Z,99.90
2018-12-08T06:17:47.171Z,99.90
2018-12-08T06:20:19.465Z,99.90
2018-12-08T06:22:51.663Z,99.90
2018-12-08T06:25:29.757Z,99.90
2018-12-08T06:28:25.592Z,99.90
2018-12-08T06:30:58.254Z,99.90
2018-12-08T06:33:31.584Z,99.90
2018-12-08T06:36:03.806Z,99.90
2018-12-08T06:38:36.001Z,99.90
2018-12-08T06:41:08.699Z,99.90
2018-12-08T06:43:40.786Z,99.90
2018-12-08T06:46:14.066Z,99.90
2018-12-08T06:52:07.805Z,99.90
2018-12-08T06:54:40.238Z,99.90
2018-12-08T06:57:12.744Z,99.90
2018-12-08T06:59:45.178Z,99.90
2018-12-08T07:02:17.700Z,99.90
2018-12-08T07:04:50.704Z,99.90
2018-12-08T07:07:24.266Z,99.90
2018-12-08T07:09:58.100Z,99.90
2018-12-08T07:12:30.691Z,99.90
2018-12-08T07:15:04.137Z,99.90
2018-12-08T07:17:37.904Z,99.90
2018-12-08T07:20:10.681Z,99.90
2018-12-08T07:22:43.205Z,99.90
2018-12-08T07:25:15.753Z,99.90
2018-12-08T07:27:48.253Z,99.90
2018-12-08T07:30:20.774Z,99.90
2018-12-08T07:32:54.274Z,99.90
2018-12-08T07:35:26.771Z,99.90
2018-12-08T07:38:00.225Z,99.90
2018-12-08T07:40:32.869Z,99.90
2018-12-08T07:43:05.460Z,99.90
2018-12-08T07:45:38.005Z,99.90
2018-12-08T07:48:11.072Z,99.90
2018-12-08T07:50:43.637Z,99.90
2018-12-08T07:53:17.847Z,99.90
2018-12-08T07:55:50.315Z,99.90
2018-12-08T07:58:22.764Z,99.90
2018-12-08T08:00:56.551Z,99.90
2018-12-08T08:03:29.040Z,99.90
2018-12-08T08:06:01.735Z,99.90
2018-12-08T08:08:34.188Z,99.90
2018-12-08T08:11:07.618Z,99.90
2018-12-08T08:13:40.083Z,99.90
2018-12-08T08:16:12.550Z,99.90
2018-12-08T08:18:44.977Z,99.90
2018-12-08T08:21:17.634Z,99.90
2018-12-08T08:23:50.047Z,99.90
2018-12-08T08:26:22.490Z,99.90
2018-12-08T08:28:55.020Z,99.90
2018-12-08T08:31:28.571Z,99.90
2018-12-08T08:34:10.429Z,99.90
2018-12-08T08:36:43.113Z,99.90
2018-12-08T08:39:15.765Z,99.90
2018-12-08T08:41:48.393Z,99.90
2018-12-08T08:44:28.710Z,99.90
2018-12-08T08:47:11.364Z,99.90
2018-12-08T08:49:48.123Z,99.90
2018-12-08T08:52:26.485Z,99.90
2018-12-08T08:55:00.240Z,99.90
2018-12-08T08:57:33.381Z,99.90
2018-12-08T09:00:06.220Z,99.90
2018-12-08T09:02:38.726Z,99.90
2018-12-08T09:05:11.559Z,99.90
2018-12-08T09:07:44.199Z,99.90
2018-12-08T09:10:17.515Z,99.90
2018-12-08T09:12:50.104Z,99.90
2018-12-08T09:18:47.836Z,99.90
2018-12-08T09:21:20.708Z,99.90
2018-12-08T09:23:53.460Z,99.90
2018-12-08T09:29:47.131Z,99.90
2018-12-08T09:32:19.546Z,99.90
2018-12-08T09:34:51.986Z,99.90
2018-12-08T09:37:24.377Z,99.90
2018-12-08T09:39:57.335Z,99.90
2018-12-08T09:42:29.821Z,99.90
2018-12-08T09:45:02.209Z,99.90
2018-12-08T09:50:56.033Z,99.90
2018-12-08T09:53:29.118Z,99.90
2018-12-08T09:56:01.632Z,99.90
2018-12-08T09:58:34.466Z,99.90
2018-12-08T10:01:07.082Z,99.90
2018-12-08T10:03:39.658Z,99.90
2018-12-08T10:09:43.881Z,99.90
2018-12-08T10:12:16.969Z,99.90
2018-12-08T10:14:49.906Z,99.90
2018-12-08T10:17:22.910Z,99.90
2018-12-08T10:19:55.691Z,99.90
2018-12-08T10:22:28.702Z,99.90
2018-12-08T10:25:02.134Z,99.90
2018-12-08T10:27:35.044Z,99.90
2018-12-08T10:30:09.301Z,99.90
2018-12-08T10:32:42.294Z,99.90
2018-12-08T10:38:47.385Z,99.90
2018-12-08T10:41:20.161Z,99.90
2018-12-08T10:43:52.828Z,99.90
2018-12-08T10:46:25.621Z,99.90
2018-12-08T10:48:58.437Z,99.90
2018-12-08T10:52:04.048Z,99.90
2018-12-08T10:54:36.632Z,99.90
2018-12-08T10:57:09.173Z,99.90
2018-12-08T10:59:42.493Z,99.90
2018-12-08T11:02:19.411Z,99.90
2018-12-08T11:04:52.981Z,99.90
2018-12-08T11:07:25.672Z,99.90
2018-12-08T11:09:59.060Z,99.90
2018-12-08T11:12:33.008Z,99.90
2018-12-08T11:15:05.817Z,99.90
2018-12-08T11:17:38.385Z,99.90
2018-12-08T11:23:32.495Z,99.90
2018-12-08T11:29:26.756Z,99.90
2018-12-08T11:31:59.651Z,99.90
2018-12-08T11:34:32.799Z,99.90
2018-12-08T11:37:05.744Z,99.90
2018-12-08T11:39:38.870Z,99.90
2018-12-08T11:42:11.876Z,99.90
2018-12-08T11:44:46.082Z,99.90
2018-12-08T11:47:19.896Z,99.90
2018-12-08T11:49:53.022Z,99.90
2018-12-08T11:52:26.085Z,99.90
2018-12-08T11:54:59.586Z,99.90
2018-12-08T11:57:32.739Z,99.90
2018-12-08T12:00:06.466Z,99.90
2018-12-08T12:02:39.363Z,99.90
2018-12-08T12:05:12.282Z,99.90
2018-12-08T12:07:46.476Z,99.90
2018-12-08T12:10:19.404Z,99.90
2018-12-08T12:12:52.632Z,99.90
2018-12-08T12:15:30.419Z,99.90
2018-12-08T12:18:03.539Z,99.90
2018-12-08T12:20:36.710Z,99.90
2018-12-08T12:23:09.863Z,99.90
2018-12-08T12:25:43.312Z,99.90
2018-12-08T12:28:16.534Z,99.90
2018-12-08T12:30:50.455Z,99.90
2018-12-08T12:33:23.512Z,99.90
2018-12-08T12:35:59.820Z,99.90
2018-12-08T12:38:32.920Z,99.90
2018-12-08T12:41:06.577Z,99.90
2018-12-08T12:43:39.760Z,99.90
2018-12-08T12:46:12.859Z,99.90
2018-12-08T12:48:46.013Z,99.90
2018-12-08T12:51:20.161Z,99.90
2018-12-08T12:53:53.425Z,99.90
2018-12-08T12:56:27.053Z,99.90
2018-12-08T12:59:00.284Z,99.90
2018-12-08T13:01:33.673Z,99.90
2018-12-08T13:04:06.766Z,99.90
2018-12-08T13:06:39.851Z,99.90
2018-12-08T13:09:17.158Z,99.90
2018-12-08T13:11:50.736Z,99.90
2018-12-08T13:14:26.307Z,99.90
2018-12-08T13:17:01.796Z,99.90
2018-12-08T13:19:45.934Z,99.90
2018-12-08T13:22:20.175Z,99.90
2018-12-08T13:28:24.162Z,99.90
2018-12-08T13:30:56.970Z,99.90
2018-12-08T13:33:30.270Z,99.90
2018-12-08T13:36:03.977Z,99.90
2018-12-08T13:38:37.461Z,99.90
2018-12-08T13:41:10.172Z,99.90
2018-12-08T13:43:45.185Z,99.90
2018-12-08T13:46:17.784Z,99.90
2018-12-08T13:48:50.545Z,99.90
2018-12-08T13:51:23.221Z,99.90
2018-12-08T13:53:56.738Z,99.90
2018-12-08T13:56:35.532Z,99.90
2018-12-08T13:59:10.582Z,99.90
2018-12-08T14:01:52.180Z,99.90
2018-12-08T14:04:24.810Z,99.90
2018-12-08T14:07:04.737Z,99.90
2018-12-08T14:09:37.431Z,99.90
2018-12-08T14:12:10.713Z,99.90
2018-12-08T14:14:43.306Z,99.90
2018-12-08T14:17:15.924Z,99.90
2018-12-08T14:19:48.502Z,99.90
2018-12-08T14:22:21.060Z,99.90
2018-12-08T14:24:53.638Z,99.90
2018-12-08T14:27:27.615Z,99.90
2018-12-08T14:30:00.173Z,99.90
2018-12-08T14:32:32.787Z,99.90
2018-12-08T14:35:09.024Z,99.90
2018-12-08T14:37:42.348Z,99.90
2018-12-08T14:40:14.909Z,99.90
2018-12-08T14:42:51.846Z,99.70
2018-12-08T14:45:24.415Z,99.90
2018-12-08T14:47:56.975Z,99.90
2018-12-08T14:50:32.573Z,99.90
2018-12-08T14:53:05.634Z,99.70
2018-12-08T14:55:38.935Z,99.90
2018-12-08T14:58:12.884Z,99.90
2018-12-08T15:00:50.014Z,99.90
2018-12-08T15:03:27.262Z,99.90
2018-12-08T15:06:18.311Z,99.90
2018-12-08T15:09:06.744Z,99.60
2018-12-08T15:12:13.255Z,97.70
2018-12-08T15:14:55.384Z,97.80
2018-12-08T15:20:25.551Z,97.80
2018-12-08T15:23:02.199Z,96.40
2018-12-08T15:25:46.440Z,95.50
2018-12-08T15:28:41.302Z,96.60
2018-12-08T15:37:32.910Z,96.00
2018-12-08T15:51:36.453Z,98.00
2018-12-08T15:54:11.306Z,95.90
2018-12-08T15:56:45.459Z,95.20
2018-12-08T15:59:18.354Z,95.90
2018-12-08T16:01:56.084Z,96.70
2018-12-08T16:04:32.120Z,96.50
2018-12-08T16:07:06.495Z,95.00
2018-12-08T16:09:40.174Z,93.80
2018-12-08T16:12:14.255Z,93.80
2018-12-08T16:14:59.626Z,93.20
2018-12-08T16:17:32.384Z,93.10
2018-12-08T16:20:12.072Z,93.60
2018-12-08T16:22:46.344Z,93.90
2018-12-08T16:25:22.417Z,92.70
2018-12-08T16:27:57.482Z,91.90
2018-12-08T16:30:30.421Z,91.40
2018-12-08T16:33:04.198Z,92.60
2018-12-08T16:35:36.998Z,90.90
2018-12-08T16:38:11.594Z,90.50
2018-12-08T16:40:44.293Z,88.80
2018-12-08T16:43:23.835Z,89.30
2018-12-08T16:46:02.004Z,91.30
2018-12-08T16:48:36.117Z,89.60
2018-12-08T16:51:08.764Z,86.20
2018-12-08T16:53:56.593Z,82.80
2018-12-08T16:56:32.007Z,77.30
2018-12-08T16:59:05.579Z,76.00
2018-12-08T17:01:38.221Z,73.20
2018-12-08T17:04:10.796Z,73.00
2018-12-08T17:06:44.785Z,72.90
2018-12-08T17:09:17.880Z,75.70
2018-12-08T17:11:50.900Z,73.00
2018-12-08T17:14:23.808Z,71.30
2018-12-08T17:16:57.554Z,70.70
2018-12-08T17:19:32.294Z,72.10
2018-12-08T17:22:05.439Z,72.80
2018-12-08T17:24:38.168Z,73.90
2018-12-08T17:27:11.445Z,73.40
2018-12-08T17:29:44.838Z,73.20
2018-12-08T17:32:17.430Z,73.40
2018-12-08T17:34:50.041Z,72.20
2018-12-08T17:37:24.770Z,69.40
2018-12-08T17:39:57.429Z,72.90
2018-12-08T17:42:30.183Z,72.50
2018-12-08T17:45:04.412Z,71.70
2018-12-08T17:47:38.440Z,71.70
2018-12-08T17:53:42.440Z,70.40
2018-12-08T17:56:15.208Z,69.00
2018-12-08T17:58:59.306Z,71.80
2018-12-08T18:01:35.804Z,73.00
2018-12-08T18:04:08.409Z,69.70
2018-12-08T18:06:44.749Z,68.70
2018-12-08T18:09:17.428Z,68.20
2018-12-08T18:11:51.388Z,71.40
2018-12-08T18:17:46.308Z,77.00
2018-12-08T18:20:19.200Z,76.50
2018-12-08T18:22:51.802Z,76.30
2018-12-08T18:25:24.499Z,74.40
2018-12-08T18:27:57.189Z,73.60
2018-12-08T18:30:29.905Z,73.90
2018-12-08T18:33:07.011Z,73.80
2018-12-08T18:35:41.524Z,74.40
2018-12-08T18:38:14.252Z,74.50
2018-12-08T18:40:46.959Z,76.80
2018-12-08T18:43:21.137Z,78.20
2018-12-08T18:45:53.969Z,75.00
2018-12-08T18:48:27.404Z,73.70
2018-12-08T18:50:59.978Z,77.10
2018-12-08T18:53:33.360Z,80.60
2018-12-08T18:56:06.071Z,82.40
2018-12-08T18:58:38.780Z,82.70
2018-12-08T19:01:11.940Z,81.90
2018-12-08T19:03:47.377Z,81.90
2018-12-08T19:06:20.217Z,83.20
2018-12-08T19:08:53.181Z,82.60
2018-12-08T19:11:27.880Z,79.50
2018-12-08T19:14:01.250Z,74.90
2018-12-08T19:16:34.750Z,75.20
2018-12-08T19:19:09.511Z,76.80
2018-12-08T19:21:42.168Z,76.90
2018-12-08T19:24:14.765Z,76.80
2018-12-08T19:26:47.394Z,76.30
2018-12-08T19:29:19.962Z,78.10
2018-12-08T19:31:52.718Z,79.70
2018-12-08T19:34:25.369Z,81.20
2018-12-08T19:36:58.015Z,82.00
2018-12-08T19:39:30.675Z,81.50
2018-12-08T19:42:03.402Z,80.40
2018-12-08T19:44:37.341Z,77.20
2018-12-08T19:47:09.908Z,75.10
2018-12-08T19:49:43.886Z,74.10
2018-12-08T19:52:19.751Z,75.80
2018-12-08T19:58:35.864Z,77.50
2018-12-08T20:01:08.810Z,78.10
2018-12-08T20:03:42.038Z,79.00
2018-12-08T20:06:14.954Z,78.20
2018-12-08T20:08:49.586Z,80.20
2018-12-08T20:11:24.170Z,80.40
2018-12-08T20:15:00.015Z,82.60
2018-12-08T20:17:34.243Z,82.10
2018-12-08T20:20:07.339Z,81.80
2018-12-08T20:22:40.754Z,80.50
2018-12-08T20:25:13.691Z,79.80
2018-12-08T20:27:46.492Z,79.20
2018-12-08T20:30:19.211Z,79.40
2018-12-08T20:32:52.793Z,78.80
2018-12-08T20:35:26.509Z,79.00
2018-12-08T20:37:59.370Z,78.30
2018-12-08T20:40:32.087Z,78.00
2018-12-08T20:43:04.854Z,77.80
2018-12-08T20:45:37.606Z,77.70
2018-12-08T20:48:12.324Z,78.10
2018-12-08T20:50:46.041Z,79.20
2018-12-08T20:53:21.187Z,78.30
2018-12-08T20:55:54.207Z,78.50
2018-12-08T20:58:29.116Z,77.20
2018-12-08T21:01:02.065Z,77.50
2018-12-08T21:03:35.738Z,78.10
2018-12-08T21:06:08.889Z,78.10
2018-12-08T21:08:43.166Z,76.20
2018-12-08T21:11:17.065Z,75.40
2018-12-08T21:13:51.122Z,73.00
2018-12-08T21:16:24.851Z,76.40
2018-12-08T21:18:57.692Z,79.60
2018-12-08T21:21:36.767Z,82.00
2018-12-08T21:24:15.661Z,84.90
2018-12-08T21:26:54.127Z,85.60
2018-12-08T21:29:27.937Z,87.70
2018-12-08T21:32:01.246Z,88.90
2018-12-08T21:34:38.422Z,91.60
2018-12-08T21:37:12.228Z,92.40
2018-12-08T21:39:49.328Z,93.60
2018-12-08T21:42:30.342Z,94.90
2018-12-08T21:45:09.588Z,92.30
2018-12-08T21:47:47.520Z,91.00
2018-12-08T21:50:23.146Z,92.90
2018-12-08T22:00:34.559Z,91.80
2018-12-08T22:03:09.225Z,91.30
2018-12-08T22:05:45.878Z,91.00
2018-12-08T22:08:20.928Z,90.90
2018-12-08T22:10:54.840Z,90.30
2018-12-08T22:13:28.870Z,90.30
2018-12-08T22:16:02.735Z,89.00
2018-12-08T22:18:39.606Z,87.30
2018-12-08T22:21:20.148Z,86.50
2018-12-08T22:23:54.559Z,84.20
2018-12-08T22:26:42.770Z,84.40
2018-12-08T22:29:19.198Z,97.50
2018-12-08T22:31:54.408Z,99.90
2018-12-08T22:34:28.039Z,99.90
2018-12-08T22:37:06.300Z,99.90
2018-12-08T22:39:42.301Z,99.90
2018-12-08T22:42:15.349Z,99.90
2018-12-08T22:44:51.048Z,99.90
2018-12-08T22:47:32.781Z,99.90
2018-12-08T22:50:07.275Z,99.90
2018-12-08T22:52:40.940Z,99.90
2018-12-08T22:55:15.527Z,99.90
2018-12-08T22:57:48.410Z,99.90
2018-12-08T23:00:48.719Z,99.90
2018-12-08T23:03:22.704Z,99.90
2018-12-08T23:05:56.436Z,99.90
2018-12-08T23:08:30.939Z,99.90
2018-12-08T23:11:05.811Z,99.90
2018-12-08T23:13:41.080Z,99.90
2018-12-08T23:16:15.508Z,99.90
2018-12-08T23:18:49.562Z,99.90
2018-12-08T23:21:29.308Z,99.90
2018-12-08T23:26:42.930Z,99.90
2018-12-08T23:29:16.490Z,99.90
2018-12-08T23:31:59.850Z,99.90
2018-12-08T23:34:33.634Z,99.90
2018-12-08T23:37:21.716Z,99.90
2018-12-08T23:42:49.327Z,99.90
2018-12-08T23:48:27.123Z,99.90
2018-12-08T23:51:10.783Z,99.90
2018-12-08T23:53:46.899Z,99.90
2018-12-08T23:56:22.040Z,99.90
